Time;durP1;ratioP1;P1;durP2;ratioP2;P2;SDS_P1;SDS_P2;PMS_P1;PMS_P2;Temp;Humidity;BMP_temperature;BMP_pressure;BME280_temperature;BME280_humidity;BME280_pressure;Samples;Min_cycle;Max_cycle;Signal;HPM_P1;HPM_P2
2024/04/16 00:00:03;;;;;;;;;2.00;1.00;;;;;;;;5531652;25;45308;-84
2024/04/16 00:02:28;;;;;;;;;1.00;0.00;;;;;;;;5542421;25;44509;-84
2024/04/16 00:04:54;;;;;;;;;0.00;0.00;;;;;;;;5554201;25;44046;-85
2024/04/16 00:07:22;;;;;;;;;2.00;0.33;;;;;;;;5540395;25;45187;-84
2024/04/16 00:09:49;;;;;;;;;0.67;0.67;;;;;;;;5548086;25;45140;-84
2024/04/16 00:12:19;;;;;;;;;1.00;1.00;;;;;;;;5526051;25;44652;-85
2024/04/16 00:14:50;;;;;;;;;1.00;1.00;;;;;;;;5532020;25;44245;-85
2024/04/16 00:17:37;;;;;;;;;2.00;1.00;;;;;;;;5526392;25;44110;-85
2024/04/16 00:20:05;;;;;;;;;2.33;1.00;;;;;;;;5526570;25;45892;-85
2024/04/16 00:22:41;;;;;;;;;1.00;1.00;;;;;;;;5525989;25;44311;-84
2024/04/16 00:25:08;;;;;;;;;3.00;1.00;;;;;;;;5535722;25;44071;-87
2024/04/16 00:27:37;;;;;;;;;1.67;0.67;;;;;;;;5524004;25;44659;-85
2024/04/16 00:30:02;;;;;;;;;2.00;1.00;;;;;;;;5545073;25;44084;-84
2024/04/16 00:32:28;;;;;;;;;2.00;0.67;;;;;;;;5516463;25;44205;-83
2024/04/16 00:34:53;;;;;;;;;1.33;1.33;;;;;;;;5506514;25;44531;-83
2024/04/16 00:37:19;;;;;;;;;1.33;1.33;;;;;;;;5551714;25;43993;-83
2024/04/16 00:39:46;;;;;;;;;2.00;0.00;;;;;;;;5502228;25;46070;-83
2024/04/16 00:42:12;;;;;;;;;2.67;0.67;;;;;;;;5519573;25;44468;-83
2024/04/16 00:44:37;;;;;;;;;1.33;1.33;;;;;;;;5513664;25;44759;-83
2024/04/16 00:47:03;;;;;;;;;1.00;1.00;;;;;;;;5557846;25;44125;-84
2024/04/16 00:49:30;;;;;;;;;1.00;1.00;;;;;;;;5523859;25;45614;-82
2024/04/16 00:51:57;;;;;;;;;2.00;2.00;;;;;;;;5551186;25;44116;-84
2024/04/16 00:54:26;;;;;;;;;1.00;1.00;;;;;;;;5523070;25;44610;-83
2024/04/16 00:56:55;;;;;;;;;1.00;1.00;;;;;;;;5553828;25;44083;-81
2024/04/16 00:59:22;;;;;;;;;0.00;0.00;;;;;;;;5521130;25;45835;-85
2024/04/16 01:01:49;;;;;;;;;2.00;0.67;;;;;;;;5547597;25;43900;-83
2024/04/16 01:04:15;;;;;;;;;1.00;1.00;;;;;;;;5551801;25;43890;-83
2024/04/16 01:06:41;;;;;;;;;2.33;1.00;;;;;;;;5538298;25;44271;-83
2024/04/16 01:09:10;;;;;;;;;1.00;1.00;;;;;;;;5564086;25;43805;-85
2024/04/16 01:11:36;;;;;;;;;1.67;1.00;;;;;;;;5524501;25;43958;-85
2024/04/16 01:14:30;;;;;;;;;1.00;0.00;;;;;;;;5554678;25;43882;-83
2024/04/16 01:17:19;;;;;;;;;;;;;;;;;;;;;
2024/04/16 01:19:45;;;;;;;;;2.00;2.00;;;;;;;;5552369;25;72455;-80
2024/04/16 01:22:12;;;;;;;;;4.00;1.00;;;;;;;;5537298;25;44460;-82
2024/04/16 01:24:43;;;;;;;;;2.67;1.00;;;;;;;;5524447;25;43856;-82
2024/04/16 01:27:12;;;;;;;;;3.00;1.00;;;;;;;;5516888;25;44060;-82
2024/04/16 01:29:57;;;;;;;;;1.67;1.33;;;;;;;;5495378;25;44197;-84
2024/04/16 01:32:22;;;;;;;;;2.00;1.00;;;;;;;;5486607;25;44042;-84
2024/04/16 01:34:48;;;;;;;;;3.00;1.00;;;;;;;;5477781;25;45052;-85
2024/04/16 01:37:14;;;;;;;;;1.33;0.33;;;;;;;;5523964;25;44419;-82
2024/04/16 01:39:54;;;;;;;;;2.00;1.00;;;;;;;;5504809;25;44608;-82
2024/04/16 01:42:23;;;;;;;;;2.33;2.33;;;;;;;;5495603;25;43878;-85
2024/04/16 01:44:55;;;;;;;;;3.67;1.67;;;;;;;;5500785;25;44314;-84
2024/04/16 01:47:21;;;;;;;;;1.00;0.00;;;;;;;;5479651;25;44867;-82
2024/04/16 01:49:47;;;;;;;;;1.00;1.00;;;;;;;;5479633;25;45299;-85
2024/04/16 01:52:12;;;;;;;;;0.33;0.33;;;;;;;;5508335;25;43971;-84
2024/04/16 01:54:38;;;;;;;;;2.00;2.00;;;;;;;;5519947;25;43819;-84
2024/04/16 01:57:06;;;;;;;;;1.33;1.33;;;;;;;;5474459;25;44338;-84
2024/04/16 01:59:32;;;;;;;;;2.67;1.67;;;;;;;;5500210;25;44196;-82
2024/04/16 02:01:57;;;;;;;;;3.00;2.00;;;;;;;;5460791;25;44525;-83
2024/04/16 02:04:22;;;;;;;;;0.67;0.00;;;;;;;;5483643;25;43864;-83
2024/04/16 02:06:48;;;;;;;;;2.00;0.00;;;;;;;;5517164;25;43704;-83
2024/04/16 02:09:14;;;;;;;;;1.67;1.00;;;;;;;;5523725;25;44897;-85
2024/04/16 02:11:43;;;;;;;;;0.33;0.00;;;;;;;;5514730;25;44022;-84
2024/04/16 02:14:08;;;;;;;;;1.67;1.00;;;;;;;;5467519;25;44188;-84
2024/04/16 02:16:35;;;;;;;;;3.67;1.00;;;;;;;;5517226;25;44413;-83
2024/04/16 02:19:12;;;;;;;;;0.00;0.00;;;;;;;;5476940;25;44485;-83
2024/04/16 02:21:42;;;;;;;;;2.00;1.00;;;;;;;;5504530;25;44441;-83
2024/04/16 02:24:14;;;;;;;;;1.00;0.33;;;;;;;;5496660;25;44097;-84
2024/04/16 02:26:46;;;;;;;;;0.67;0.33;;;;;;;;5528525;25;44379;-84
2024/04/16 02:29:15;;;;;;;;;0.67;0.00;;;;;;;;5521642;25;44309;-84
2024/04/16 02:31:50;;;;;;;;;2.33;1.33;;;;;;;;5528495;25;45143;-83
2024/04/16 02:34:16;;;;;;;;;2.00;1.00;;;;;;;;5548838;25;44476;-84
2024/04/16 02:36:45;;;;;;;;;2.33;1.00;;;;;;;;5531494;25;44517;-84
2024/04/16 02:39:30;;;;;;;;;3.33;2.00;;;;;;;;5555357;25;43922;-83
2024/04/16 02:41:55;;;;;;;;;0.00;0.00;;;;;;;;5572881;25;43890;-82
2024/04/16 02:50:29;;;;;;;;;0.33;0.33;;;;;;;;5551489;25;44039;-81
2024/04/16 02:53:08;;;;;;;;;3.00;0.00;;;;;;;;5567613;25;44391;-83
2024/04/16 02:55:56;;;;;;;;;1.67;0.00;;;;;;;;5527482;25;44007;-82
2024/04/16 03:01:18;;;;;;;;;0.67;0.67;;;;;;;;5579065;25;44200;-81
2024/04/16 03:03:54;;;;;;;;;2.67;1.00;;;;;;;;5577768;25;44691;-83
2024/04/16 03:06:24;;;;;;;;;0.00;0.00;;;;;;;;5525007;25;44401;-84
2024/04/16 03:08:51;;;;;;;;;1.00;1.00;;;;;;;;5555761;25;44438;-84
2024/04/16 03:11:59;;;;;;;;;1.00;1.00;;;;;;;;5545538;25;44203;-82
2024/04/16 03:14:28;;;;;;;;;2.67;1.00;;;;;;;;5547562;25;44112;-81
2024/04/16 03:16:56;;;;;;;;;0.33;0.33;;;;;;;;5574292;25;43870;-82
2024/04/16 03:19:33;;;;;;;;;3.00;1.67;;;;;;;;5574580;25;44496;-83
2024/04/16 03:24:52;;;;;;;;;5.67;1.67;;;;;;;;5558672;25;43981;-82
2024/04/16 03:27:24;;;;;;;;;4.33;2.67;;;;;;;;5586156;25;43993;-83
2024/04/16 03:29:50;;;;;;;;;2.00;0.33;;;;;;;;5550525;25;44785;-83
2024/04/16 03:32:22;;;;;;;;;1.33;1.33;;;;;;;;5568633;25;46448;-81
2024/04/16 03:34:59;;;;;;;;;2.67;1.00;;;;;;;;5575437;25;43939;-83
2024/04/16 03:37:26;;;;;;;;;1.00;0.00;;;;;;;;5590522;25;43949;-82
2024/04/16 03:39:54;;;;;;;;;4.00;1.00;;;;;;;;5597466;25;44450;-83
2024/04/16 03:42:55;;;;;;;;;2.33;1.33;;;;;;;;5589615;25;44323;-82
2024/04/16 03:45:43;;;;;;;;;4.67;1.00;;;;;;;;5550042;25;43606;-83
2024/04/16 03:48:31;;;;;;;;;;;;;;;;;;;;;
2024/04/16 03:51:02;;;;;;;;;2.00;0.00;;;;;;;;5577473;25;72070;-83
2024/04/16 03:56:32;;;;;;;;;0.00;0.00;;;;;;;;5569018;25;43960;-82
2024/04/16 03:59:26;;;;;;;;;0.00;0.00;;;;;;;;5562795;25;44277;-84
2024/04/16 04:01:51;;;;;;;;;1.00;0.00;;;;;;;;5559254;25;44848;-85
2024/04/16 04:04:18;;;;;;;;;2.00;2.00;;;;;;;;5551855;25;45297;-84
2024/04/16 04:06:59;;;;;;;;;0.00;0.00;;;;;;;;5555498;25;44340;-82
2024/04/16 04:09:25;;;;;;;;;5.33;1.00;;;;;;;;5578371;25;44386;-84
2024/04/16 04:12:04;;;;;;;;;1.67;1.67;;;;;;;;5543730;25;44191;-83
2024/04/16 04:14:29;;;;;;;;;3.00;1.00;;;;;;;;5586338;25;43974;-84
2024/04/16 04:16:54;;;;;;;;;2.00;2.00;;;;;;;;5551160;25;44356;-84
2024/04/16 04:19:26;;;;;;;;;3.67;1.00;;;;;;;;5579191;25;44373;-82
2024/04/16 04:21:53;;;;;;;;;2.00;1.00;;;;;;;;5590194;25;44013;-83
2024/04/16 04:24:36;;;;;;;;;3.00;1.67;;;;;;;;5580370;25;44407;-83
2024/04/16 04:27:02;;;;;;;;;0.00;0.00;;;;;;;;5566786;25;44208;-84
2024/04/16 04:29:39;;;;;;;;;1.00;1.00;;;;;;;;5573123;25;43713;-85
2024/04/16 04:32:16;;;;;;;;;5.00;0.33;;;;;;;;5577795;25;44379;-86
2024/04/16 04:34:58;;;;;;;;;2.00;2.00;;;;;;;;5581024;25;43936;-86
2024/04/16 04:40:17;;;;;;;;;2.67;1.00;;;;;;;;5571554;25;44397;-83
2024/04/16 04:42:59;;;;;;;;;1.00;1.00;;;;;;;;5574487;25;44287;-84
2024/04/16 04:45:32;;;;;;;;;1.00;0.00;;;;;;;;5562224;25;44156;-84
2024/04/16 04:47:58;;;;;;;;;2.00;1.00;;;;;;;;5548093;25;43312;-83
2024/04/16 04:50:23;;;;;;;;;1.67;0.00;;;;;;;;5543559;25;44587;-80
2024/04/16 04:52:49;;;;;;;;;1.00;1.00;;;;;;;;5529846;25;44354;-83
2024/04/16 04:55:15;;;;;;;;;1.00;1.00;;;;;;;;5584989;25;45302;-82
2024/04/16 04:57:43;;;;;;;;;1.67;0.67;;;;;;;;5539395;25;43977;-82
2024/04/16 05:00:09;;;;;;;;;1.00;1.00;;;;;;;;5562707;25;44292;-82
2024/04/16 05:02:35;;;;;;;;;4.33;2.67;;;;;;;;5570695;25;44237;-82
2024/04/16 05:05:07;;;;;;;;;0.00;0.00;;;;;;;;5582783;25;44469;-82
2024/04/16 05:07:34;;;;;;;;;3.33;0.67;;;;;;;;5556424;25;43859;-82
2024/04/16 05:10:05;;;;;;;;;3.33;1.33;;;;;;;;5580356;25;43963;-83
2024/04/16 05:12:31;;;;;;;;;1.67;1.00;;;;;;;;5533427;25;44546;-83
2024/04/16 05:14:56;;;;;;;;;0.00;0.00;;;;;;;;5545575;25;44781;-83
2024/04/16 05:17:35;;;;;;;;;2.00;0.67;;;;;;;;5549641;25;44094;-85
2024/04/16 05:20:01;;;;;;;;;0.00;0.00;;;;;;;;5557012;25;43849;-84
2024/04/16 05:26:06;;;;;;;;;;;;;;;;;;;;;
2024/04/16 05:28:34;;;;;;;;;2.00;1.33;;;;;;;;5478123;25;69933;-80
2024/04/16 05:30:59;;;;;;;;;1.67;1.67;;;;;;;;5463465;25;44395;-77
2024/04/16 05:33:27;;;;;;;;;1.00;1.00;;;;;;;;5483346;25;43927;-78
2024/04/16 05:35:52;;;;;;;;;1.67;1.00;;;;;;;;5463608;25;43968;-76
2024/04/16 05:38:18;;;;;;;;;1.33;0.33;;;;;;;;5500291;25;44090;-77
2024/04/16 05:40:44;;;;;;;;;3.33;0.00;;;;;;;;5489361;25;43985;-74
2024/04/16 05:43:09;;;;;;;;;1.67;1.67;;;;;;;;5493301;25;46339;-77
2024/04/16 05:45:34;;;;;;;;;2.00;1.33;;;;;;;;5489276;25;44910;-77
2024/04/16 05:48:00;;;;;;;;;1.00;1.00;;;;;;;;5495505;25;43954;-77
2024/04/16 05:50:25;;;;;;;;;3.33;1.67;;;;;;;;5469185;25;44330;-74
2024/04/16 05:52:51;;;;;;;;;5.00;3.00;;;;;;;;5446927;25;45232;-75
2024/04/16 05:55:16;;;;;;;;;3.33;2.67;;;;;;;;5490022;25;44990;-75
2024/04/16 05:57:41;;;;;;;;;2.00;0.33;;;;;;;;5498689;25;43945;-75
2024/04/16 06:00:07;;;;;;;;;2.00;2.00;;;;;;;;5486175;25;44377;-75
2024/04/16 06:02:32;;;;;;;;;4.67;2.00;;;;;;;;5497564;25;44346;-74
2024/04/16 06:04:57;;;;;;;;;2.00;1.00;;;;;;;;5469700;25;45793;-75
2024/04/16 06:07:23;;;;;;;;;4.67;3.00;;;;;;;;5469163;25;44142;-76
2024/04/16 06:09:48;;;;;;;;;3.33;0.67;;;;;;;;5479844;25;44550;-76
2024/04/16 06:12:13;;;;;;;;;2.33;1.33;;;;;;;;5499019;25;44268;-74
2024/04/16 06:14:38;;;;;;;;;4.33;1.33;;;;;;;;5482608;25;45459;-75
2024/04/16 06:17:04;;;;;;;;;3.67;1.33;;;;;;;;5452785;25;44605;-76
2024/04/16 06:19:29;;;;;;;;;2.67;1.00;;;;;;;;5459967;25;44266;-75
2024/04/16 06:21:54;;;;;;;;;2.67;2.00;;;;;;;;5479180;25;44422;-74
2024/04/16 06:24:20;;;;;;;;;3.67;1.00;;;;;;;;5466143;25;45276;-76
2024/04/16 06:26:45;;;;;;;;;4.67;1.00;;;;;;;;5519792;25;44517;-75
2024/04/16 06:29:11;;;;;;;;;3.33;1.00;;;;;;;;5575825;25;43983;-77
2024/04/16 06:31:36;;;;;;;;;2.00;1.00;;;;;;;;5535424;25;45815;-75
2024/04/16 06:34:01;;;;;;;;;4.67;2.00;;;;;;;;5537121;25;46245;-75
2024/04/16 06:36:27;;;;;;;;;6.00;3.00;;;;;;;;5566921;25;44679;-76
2024/04/16 06:38:52;;;;;;;;;2.00;2.00;;;;;;;;5575429;25;44027;-76
2024/04/16 06:41:18;;;;;;;;;3.33;1.33;;;;;;;;5505268;25;46071;-75
2024/04/16 06:43:43;;;;;;;;;5.00;2.00;;;;;;;;5567821;25;44039;-76
2024/04/16 06:46:08;;;;;;;;;2.00;1.33;;;;;;;;5566293;25;43900;-75
2024/04/16 06:48:33;;;;;;;;;2.00;2.00;;;;;;;;5571415;25;44359;-76
2024/04/16 06:50:59;;;;;;;;;1.33;1.00;;;;;;;;5571959;25;44080;-76
2024/04/16 06:53:25;;;;;;;;;5.33;1.67;;;;;;;;5537356;25;46124;-77
2024/04/16 06:56:03;;;;;;;;;2.00;2.00;;;;;;;;5542367;25;44310;-75
2024/04/16 06:58:29;;;;;;;;;4.00;1.00;;;;;;;;5537369;25;44090;-74
2024/04/16 07:00:54;;;;;;;;;3.00;1.67;;;;;;;;5570673;25;44084;-76
2024/04/16 07:03:20;;;;;;;;;2.00;2.00;;;;;;;;5569782;25;44541;-75
2024/04/16 07:05:46;;;;;;;;;7.33;4.00;;;;;;;;5572314;25;44010;-74
2024/04/16 07:08:11;;;;;;;;;1.50;0.50;;;;;;;;5540897;25;44134;-73
2024/04/16 07:10:36;;;;;;;;;6.00;3.00;;;;;;;;5573095;25;43929;-72
2024/04/16 07:13:02;;;;;;;;;2.00;1.00;;;;;;;;5574286;25;45029;-74
2024/04/16 07:15:27;;;;;;;;;3.00;0.33;;;;;;;;5567435;25;44135;-75
2024/04/16 07:17:53;;;;;;;;;1.67;1.67;;;;;;;;5576339;25;43975;-75
2024/04/16 07:20:18;;;;;;;;;4.00;3.67;;;;;;;;5573342;25;44500;-74
2024/04/16 07:22:43;;;;;;;;;1.67;1.67;;;;;;;;5545213;25;45691;-74
2024/04/16 07:25:09;;;;;;;;;3.00;3.00;;;;;;;;5577938;25;44229;-77
2024/04/16 07:27:34;;;;;;;;;4.33;3.00;;;;;;;;5576760;25;43913;-78
2024/04/16 07:29:59;;;;;;;;;1.67;1.67;;;;;;;;5574747;25;44289;-77
2024/04/16 07:32:24;;;;;;;;;4.00;3.00;;;;;;;;5542757;25;45605;-75
2024/04/16 07:34:50;;;;;;;;;4.67;1.33;;;;;;;;5572974;25;44584;-75
2024/04/16 07:37:15;;;;;;;;;3.33;1.67;;;;;;;;5572864;25;43980;-75
2024/04/16 07:39:40;;;;;;;;;4.00;1.00;;;;;;;;5565660;25;44376;-75
2024/04/16 07:42:06;;;;;;;;;6.00;3.00;;;;;;;;5564580;25;43994;-75
2024/04/16 07:44:31;;;;;;;;;2.00;2.00;;;;;;;;5563138;25;44347;-75
2024/04/16 07:46:59;;;;;;;;;5.00;3.33;;;;;;;;5562810;25;44026;-75
2024/04/16 07:49:24;;;;;;;;;1.00;1.00;;;;;;;;5567999;25;44410;-76
2024/04/16 07:51:50;;;;;;;;;2.67;2.00;;;;;;;;5563619;25;44487;-78
2024/04/16 07:54:15;;;;;;;;;3.67;1.67;;;;;;;;5533600;25;43948;-76
2024/04/16 07:56:40;;;;;;;;;4.67;2.67;;;;;;;;5540566;25;44009;-76
2024/04/16 07:59:08;;;;;;;;;2.00;2.00;;;;;;;;5565616;25;44501;-78
2024/04/16 08:01:33;;;;;;;;;4.33;3.00;;;;;;;;5528787;25;46053;-80
2024/04/16 08:03:59;;;;;;;;;5.00;4.00;;;;;;;;5536911;25;44424;-77
2024/04/16 08:06:25;;;;;;;;;3.67;3.33;;;;;;;;5535739;25;44869;-78
2024/04/16 08:08:51;;;;;;;;;2.33;1.67;;;;;;;;5537066;25;44573;-77
2024/04/16 08:11:17;;;;;;;;;4.00;4.00;;;;;;;;5570480;25;43894;-77
2024/04/16 08:13:42;;;;;;;;;4.67;2.00;;;;;;;;5574317;25;44217;-77
2024/04/16 08:16:07;;;;;;;;;2.00;0.67;;;;;;;;5564295;25;44004;-79
2024/04/16 08:18:33;;;;;;;;;1.33;1.33;;;;;;;;5559243;25;44933;-78
2024/04/16 08:20:58;;;;;;;;;4.33;3.33;;;;;;;;5535602;25;44315;-78
2024/04/16 08:23:24;;;;;;;;;0.00;0.00;;;;;;;;5584220;25;44036;-77
2024/04/16 08:25:59;;;;;;;;;5.67;2.00;;;;;;;;5576773;25;44051;-79
2024/04/16 08:28:24;;;;;;;;;3.00;1.00;;;;;;;;5581589;25;43977;-76
2024/04/16 08:30:52;;;;;;;;;2.33;1.67;;;;;;;;5579117;25;43958;-81
2024/04/16 08:33:20;;;;;;;;;3.67;1.33;;;;;;;;5526521;25;43943;-77
2024/04/16 08:35:45;;;;;;;;;1.33;1.33;;;;;;;;5552608;25;44412;-77
2024/04/16 08:38:10;;;;;;;;;2.00;2.00;;;;;;;;5600620;25;44377;-76
2024/04/16 08:40:36;;;;;;;;;3.67;2.33;;;;;;;;5539246;25;45912;-75
2024/04/16 08:43:02;;;;;;;;;3.33;1.00;;;;;;;;5565977;25;43842;-78
2024/04/16 08:45:28;;;;;;;;;1.00;1.00;;;;;;;;5532261;25;44084;-76
2024/04/16 08:47:55;;;;;;;;;1.33;1.00;;;;;;;;5567407;25;44051;-75
2024/04/16 08:50:28;;;;;;;;;0.33;0.00;;;;;;;;5531743;25;45863;-85
2024/04/16 08:52:58;;;;;;;;;0.67;0.67;;;;;;;;5570100;25;44393;-77
2024/04/16 08:55:25;;;;;;;;;0.67;0.67;;;;;;;;5563014;25;43969;-75
2024/04/16 08:57:51;;;;;;;;;0.67;0.67;;;;;;;;5567935;25;44317;-77
2024/04/16 09:00:17;;;;;;;;;1.33;1.33;;;;;;;;5565175;25;44108;-81
2024/04/16 09:02:43;;;;;;;;;3.33;2.00;;;;;;;;5565899;25;43865;-78
2024/04/16 09:05:09;;;;;;;;;0.67;0.00;;;;;;;;5565425;25;44492;-82
2024/04/16 09:07:39;;;;;;;;;0.00;0.00;;;;;;;;5538493;25;44362;-80
2024/04/16 09:10:43;;;;;;;;;1.00;0.00;;;;;;;;5573165;25;45266;-77
2024/04/16 09:13:17;;;;;;;;;1.00;0.00;;;;;;;;5543333;25;44154;-82
2024/04/16 09:15:47;;;;;;;;;2.25;0.00;;;;;;;;5579632;25;43195;-79
2024/04/16 09:18:23;;;;;;;;;1.00;1.00;;;;;;;;5571626;25;44401;-80
2024/04/16 09:20:54;;;;;;;;;0.25;0.25;;;;;;;;5571541;25;43891;-84
2024/04/16 09:23:26;;;;;;;;;0.00;0.00;;;;;;;;5580198;25;43239;-82
2024/04/16 09:28:51;;;;;;;;;1.00;0.75;;;;;;;;5534814;25;43789;-84
2024/04/16 09:31:23;;;;;;;;;1.00;1.00;;;;;;;;5544725;25;44902;-84
2024/04/16 09:34:11;;;;;;;;;1.50;1.00;;;;;;;;5557357;25;44038;-84
2024/04/16 09:36:46;;;;;;;;;2.75;1.50;;;;;;;;5521611;25;44404;-82
2024/04/16 09:39:41;;;;;;;;;2.00;2.00;;;;;;;;5531599;25;44451;-80
2024/04/16 09:45:37;;;;;;;;;3.25;2.00;;;;;;;;5483410;25;44115;-84
2024/04/16 09:48:25;;;;;;;;;1.00;1.00;;;;;;;;5454572;25;44016;-84
2024/04/16 09:53:56;;;;;;;;;3.50;2.25;;;;;;;;5479957;25;45271;-81
2024/04/16 09:56:24;;;;;;;;;1.00;0.00;;;;;;;;5490312;25;44590;-77
2024/04/16 09:58:53;;;;;;;;;2.00;1.00;;;;;;;;5556792;25;44605;-81
2024/04/16 10:01:40;;;;;;;;;1.00;0.00;;;;;;;;5572136;25;44725;-89
2024/04/16 10:04:26;;;;;;;;;0.00;0.00;;;;;;;;5485184;25;43699;-92
2024/04/16 10:09:54;;;;;;;;;0.50;0.50;;;;;;;;5593047;20;44055;-70
2024/04/16 10:12:19;;;;;;;;;6.00;4.75;;;;;;;;5485035;25;44141;-72
2024/04/16 10:14:46;;;;;;;;;9.67;7.67;;;;;;;;5502693;25;45805;-74
2024/04/16 10:17:14;;;;;;;;;0.00;0.00;;;;;;;;5449928;25;44667;-71
2024/04/16 10:19:39;;;;;;;;;0.00;0.00;;;;;;;;5485916;25;44227;-73
2024/04/16 10:22:11;;;;;;;;;1.25;0.00;;;;;;;;5480565;25;44269;-72
2024/04/16 10:24:36;;;;;;;;;0.00;0.00;;;;;;;;5493343;25;44497;-74
2024/04/16 10:27:01;;;;;;;;;1.00;0.00;;;;;;;;5460417;25;44424;-73
2024/04/16 10:29:32;;;;;;;;;0.00;0.00;;;;;;;;5492247;25;43978;-78
2024/04/16 10:32:01;;;;;;;;;0.00;0.00;;;;;;;;5464924;25;43315;-82
2024/04/16 10:34:27;;;;;;;;;0.00;0.00;;;;;;;;5498722;25;44019;-76
2024/04/16 10:36:53;;;;;;;;;0.25;0.00;;;;;;;;5491473;25;44679;-72
2024/04/16 10:39:18;;;;;;;;;0.00;0.00;;;;;;;;5458982;25;44016;-78
2024/04/16 10:41:53;;;;;;;;;1.75;0.00;;;;;;;;5494340;25;43998;-75
2024/04/16 10:44:19;;;;;;;;;0.00;0.00;;;;;;;;5495042;25;44795;-76
2024/04/16 10:46:44;;;;;;;;;0.00;0.00;;;;;;;;5465465;25;44348;-71
2024/04/16 10:49:11;;;;;;;;;1.50;1.00;;;;;;;;5462478;25;44043;-75
2024/04/16 10:51:37;;;;;;;;;1.00;0.00;;;;;;;;5494340;25;44347;-78
2024/04/16 10:54:06;;;;;;;;;1.75;1.00;;;;;;;;5461419;25;45033;-79
2024/04/16 10:56:32;;;;;;;;;1.50;1.00;;;;;;;;5467225;25;44218;-78
2024/04/16 10:58:57;;;;;;;;;0.75;0.75;;;;;;;;5490935;25;44095;-75
2024/04/16 11:01:23;;;;;;;;;1.00;1.00;;;;;;;;5488627;25;44128;-74
2024/04/16 11:03:48;;;;;;;;;0.00;0.00;;;;;;;;5473880;25;43962;-73
2024/04/16 11:06:15;;;;;;;;;2.50;0.25;;;;;;;;5457237;25;43936;-74
2024/04/16 11:08:41;;;;;;;;;0.50;0.00;;;;;;;;5474379;25;44374;-72
2024/04/16 11:11:06;;;;;;;;;0.75;0.00;;;;;;;;5480556;25;44728;-71
2024/04/16 11:13:32;;;;;;;;;0.00;0.00;;;;;;;;5486140;25;44221;-74
2024/04/16 11:15:58;;;;;;;;;1.00;1.00;;;;;;;;5463654;25;44327;-71
2024/04/16 11:18:27;;;;;;;;;0.00;0.00;;;;;;;;5497482;25;43956;-72
2024/04/16 11:20:52;;;;;;;;;0.00;0.00;;;;;;;;5495225;25;44231;-76
2024/04/16 11:23:17;;;;;;;;;0.00;0.00;;;;;;;;5472496;25;44315;-74
2024/04/16 11:25:46;;;;;;;;;0.00;0.00;;;;;;;;5479369;25;44293;-75
2024/04/16 11:28:13;;;;;;;;;0.00;0.00;;;;;;;;5498949;25;44410;-76
2024/04/16 11:30:52;;;;;;;;;0.67;0.00;;;;;;;;5492219;25;44389;-72
2024/04/16 11:33:17;;;;;;;;;0.00;0.00;;;;;;;;5496721;25;44812;-76
2024/04/16 11:35:42;;;;;;;;;0.00;0.00;;;;;;;;5498635;25;44185;-77
2024/04/16 11:38:08;;;;;;;;;0.00;0.00;;;;;;;;5466507;25;43886;-77
2024/04/16 11:40:36;;;;;;;;;2.00;0.00;;;;;;;;5499837;25;43975;-79
2024/04/16 11:43:06;;;;;;;;;0.00;0.00;;;;;;;;5490071;25;45215;-78
2024/04/16 11:45:32;;;;;;;;;1.00;0.00;;;;;;;;5468708;25;44273;-76
2024/04/16 11:47:58;;;;;;;;;0.00;0.00;;;;;;;;5438319;25;44085;-74
2024/04/16 11:50:23;;;;;;;;;1.00;1.00;;;;;;;;5498543;25;43935;-77
2024/04/16 11:52:48;;;;;;;;;0.00;0.00;;;;;;;;5497369;25;45221;-75
2024/04/16 11:55:14;;;;;;;;;1.00;1.00;;;;;;;;5495755;25;43944;-71
2024/04/16 11:57:39;;;;;;;;;1.00;1.00;;;;;;;;5500288;25;44142;-72
2024/04/16 12:00:05;;;;;;;;;0.00;0.00;;;;;;;;5463900;25;45827;-73
2024/04/16 12:02:30;;;;;;;;;0.67;0.67;;;;;;;;5517130;25;44846;-77
2024/04/16 12:04:56;;;;;;;;;2.00;1.00;;;;;;;;5503117;25;43321;-76
2024/04/16 12:07:21;;;;;;;;;1.33;0.00;;;;;;;;5494372;25;44818;-77
2024/04/16 12:09:47;;;;;;;;;0.00;0.00;;;;;;;;5461290;25;44375;-76
2024/04/16 12:12:12;;;;;;;;;2.00;0.33;;;;;;;;5463194;25;44052;-75
2024/04/16 12:14:43;;;;;;;;;0.00;0.00;;;;;;;;5447377;26;44453;-79
2024/04/16 12:17:09;;;;;;;;;2.00;0.00;;;;;;;;5421859;26;44558;-74
2024/04/16 12:19:34;;;;;;;;;0.33;0.33;;;;;;;;5473373;25;44142;-72
2024/04/16 12:22:00;;;;;;;;;1.33;0.00;;;;;;;;5459563;26;43976;-69
2024/04/16 12:24:25;;;;;;;;;1.67;0.00;;;;;;;;5397324;26;43862;-70
2024/04/16 12:26:50;;;;;;;;;0.00;0.00;;;;;;;;5461560;25;43917;-70
2024/04/16 12:29:16;;;;;;;;;0.00;0.00;;;;;;;;5460586;25;44365;-69
2024/04/16 12:31:41;;;;;;;;;0.00;0.00;;;;;;;;5460596;25;44691;-70
2024/04/16 12:34:07;;;;;;;;;1.67;0.67;;;;;;;;5461926;25;43949;-70
2024/04/16 12:36:35;;;;;;;;;1.00;0.00;;;;;;;;5469590;25;43334;-69
2024/04/16 12:39:01;;;;;;;;;0.00;0.00;;;;;;;;5459818;25;43810;-68
2024/04/16 12:41:26;;;;;;;;;0.33;0.33;;;;;;;;5438086;26;43865;-73
2024/04/16 12:43:52;;;;;;;;;0.00;0.00;;;;;;;;5461633;25;43824;-69
2024/04/16 12:46:17;;;;;;;;;0.00;0.00;;;;;;;;5456848;25;44293;-71
2024/04/16 12:48:42;;;;;;;;;0.00;0.00;;;;;;;;5422786;26;44647;-70
2024/04/16 12:51:07;;;;;;;;;0.00;0.00;;;;;;;;5454216;26;44523;-71
2024/04/16 12:53:33;;;;;;;;;1.00;1.00;;;;;;;;5430699;26;44220;-70
2024/04/16 12:55:59;;;;;;;;;0.00;0.00;;;;;;;;5453634;26;44850;-76
2024/04/16 12:58:24;;;;;;;;;2.00;1.00;;;;;;;;5453416;26;44442;-76
2024/04/16 13:00:50;;;;;;;;;0.00;0.00;;;;;;;;5454150;26;44429;-74
2024/04/16 13:03:15;;;;;;;;;0.00;0.00;;;;;;;;5454280;26;44381;-76
2024/04/16 13:05:40;;;;;;;;;2.00;0.00;;;;;;;;5452692;26;43980;-73
2024/04/16 13:08:06;;;;;;;;;2.00;1.00;;;;;;;;5450975;26;44180;-76
2024/04/16 13:10:31;;;;;;;;;0.00;0.00;;;;;;;;5452392;26;44632;-77
2024/04/16 13:12:57;;;;;;;;;0.67;0.00;;;;;;;;5454108;26;44084;-76
2024/04/16 13:15:22;;;;;;;;;1.00;0.00;;;;;;;;5456101;25;44226;-76
2024/04/16 13:17:47;;;;;;;;;0.67;0.67;;;;;;;;5421665;26;44799;-76
2024/04/16 13:20:12;;;;;;;;;1.33;0.33;;;;;;;;5457473;25;43824;-77
2024/04/16 13:22:38;;;;;;;;;1.33;0.33;;;;;;;;5422186;26;43894;-77
2024/04/16 13:25:03;;;;;;;;;0.00;0.00;;;;;;;;5453973;26;44019;-77
2024/04/16 13:27:29;;;;;;;;;0.00;0.00;;;;;;;;5422826;26;45623;-75
2024/04/16 13:29:54;;;;;;;;;0.00;0.00;;;;;;;;5454311;26;44718;-77
2024/04/16 13:32:22;;;;;;;;;0.00;0.00;;;;;;;;5422917;26;43914;-73
2024/04/16 13:34:48;;;;;;;;;0.00;0.00;;;;;;;;5451819;26;44310;-72
2024/04/16 13:37:13;;;;;;;;;0.00;0.00;;;;;;;;5454903;26;44355;-76
2024/04/16 13:39:44;;;;;;;;;0.00;0.00;;;;;;;;5420814;26;45752;-77
2024/04/16 13:42:09;;;;;;;;;0.00;0.00;;;;;;;;5446410;25;44511;-76
2024/04/16 13:44:36;;;;;;;;;0.00;0.00;;;;;;;;5421113;26;43891;-74
2024/04/16 13:47:01;;;;;;;;;1.00;0.00;;;;;;;;5434096;26;44297;-72
2024/04/16 13:49:27;;;;;;;;;0.00;0.00;;;;;;;;5420823;26;47004;-73
2024/04/16 13:51:52;;;;;;;;;0.00;0.00;;;;;;;;5420187;26;44384;-73
2024/04/16 13:54:17;;;;;;;;;3.00;0.67;;;;;;;;5450154;26;44522;-72
2024/04/16 13:56:42;;;;;;;;;0.00;0.00;;;;;;;;5413646;26;44565;-71
2024/04/16 13:59:07;;;;;;;;;1.00;0.00;;;;;;;;5462006;25;45210;-71
2024/04/16 14:01:33;;;;;;;;;2.67;1.00;;;;;;;;5419235;26;43981;-72
2024/04/16 14:03:58;;;;;;;;;0.00;0.00;;;;;;;;5454773;26;43914;-71
2024/04/16 14:06:23;;;;;;;;;0.00;0.00;;;;;;;;5425234;26;44367;-70
2024/04/16 14:08:48;;;;;;;;;0.00;0.00;;;;;;;;5452896;26;44514;-74
2024/04/16 14:11:14;;;;;;;;;0.00;0.00;;;;;;;;5444225;25;45964;-76
2024/04/16 14:13:39;;;;;;;;;0.00;0.00;;;;;;;;5423157;26;44143;-74
2024/04/16 14:16:04;;;;;;;;;0.00;0.00;;;;;;;;5457692;25;44326;-75
2024/04/16 14:18:29;;;;;;;;;1.33;0.33;;;;;;;;5462444;25;44399;-74
2024/04/16 14:20:55;;;;;;;;;1.00;0.00;;;;;;;;5454831;26;43850;-72
2024/04/16 14:23:21;;;;;;;;;0.00;0.00;;;;;;;;5424350;26;43846;-75
2024/04/16 14:25:46;;;;;;;;;0.00;0.00;;;;;;;;5430871;26;45526;-77
2024/04/16 14:28:11;;;;;;;;;0.00;0.00;;;;;;;;5454727;26;44462;-73
2024/04/16 14:30:36;;;;;;;;;0.00;0.00;;;;;;;;5453769;26;44321;-74
2024/04/16 14:33:02;;;;;;;;;0.00;0.00;;;;;;;;5453739;26;43946;-72
2024/04/16 14:35:27;;;;;;;;;0.00;0.00;;;;;;;;5454307;25;44451;-76
2024/04/16 14:37:52;;;;;;;;;0.00;0.00;;;;;;;;5454739;26;44686;-71
2024/04/16 14:40:18;;;;;;;;;0.00;0.00;;;;;;;;5457487;25;44384;-72
2024/04/16 14:42:43;;;;;;;;;0.33;0.33;;;;;;;;5474686;25;44259;-71
2024/04/16 14:45:09;;;;;;;;;0.00;0.00;;;;;;;;5430213;26;45415;-71
2024/04/16 14:47:34;;;;;;;;;1.00;0.33;;;;;;;;5454738;26;45201;-72
2024/04/16 14:49:59;;;;;;;;;1.67;0.00;;;;;;;;5456014;26;44282;-73
2024/04/16 14:52:24;;;;;;;;;0.33;0.33;;;;;;;;5456175;26;44400;-72
2024/04/16 14:54:50;;;;;;;;;0.00;0.00;;;;;;;;5455254;26;44853;-74
2024/04/16 14:57:16;;;;;;;;;0.00;0.00;;;;;;;;5457101;25;45371;-73
2024/04/16 14:59:42;;;;;;;;;0.00;0.00;;;;;;;;5460727;25;44323;-73
2024/04/16 15:02:07;;;;;;;;;2.00;2.00;;;;;;;;5455358;26;43900;-75
2024/04/16 15:04:33;;;;;;;;;0.33;0.33;;;;;;;;5456783;26;44399;-73
2024/04/16 15:06:59;;;;;;;;;1.00;0.00;;;;;;;;5455717;25;44287;-72
2024/04/16 15:09:24;;;;;;;;;0.00;0.00;;;;;;;;5434863;26;44291;-72
2024/04/16 15:11:51;;;;;;;;;0.33;0.00;;;;;;;;5442418;26;44261;-74
2024/04/16 15:14:16;;;;;;;;;2.67;0.33;;;;;;;;5463139;25;44891;-74
2024/04/16 15:16:43;;;;;;;;;0.00;0.00;;;;;;;;5453561;26;47052;-76
2024/04/16 15:19:09;;;;;;;;;0.67;0.67;;;;;;;;5429240;26;44498;-76
2024/04/16 15:21:34;;;;;;;;;0.33;0.00;;;;;;;;5441980;25;44412;-75
2024/04/16 15:23:59;;;;;;;;;3.33;2.33;;;;;;;;5438797;26;44354;-70